Time;durP1;ratioP1;P1;durP2;ratioP2;P2;SDS_P1;SDS_P2;PMS_P1;PMS_P2;Temp;Humidity;BMP_temperature;BMP_pressure;BME280_temperature;BME280_humidity;BME280_pressure;Samples;Min_cycle;Max_cycle;Signal;HPM_P1;HPM_P2
2022/11/29 00:00:51;;;;;;;5.00;4.50;;;18.00;50.60;;;;;;4994463;28;20217;-70
2022/11/29 00:03:19;;;;;;;4.10;3.80;;;18.00;50.60;;;;;;4995320;28;20247;-70
2022/11/29 00:05:46;;;;;;;4.50;4.10;;;17.90;50.60;;;;;;4994269;28;20218;-70
2022/11/29 00:08:14;;;;;;;4.60;4.20;;;17.90;50.70;;;;;;4993856;28;20576;-70
2022/11/29 00:10:41;;;;;;;4.97;4.57;;;17.90;50.60;;;;;;4995064;28;20213;-70
2022/11/29 00:13:07;;;;;;;4.82;4.32;;;17.90;50.70;;;;;;4993848;28;20208;-70
2022/11/29 00:15:35;;;;;;;4.97;4.47;;;17.90;50.70;;;;;;4993751;28;20284;-70
2022/11/29 00:18:03;;;;;;;4.80;4.40;;;17.90;50.80;;;;;;4995025;28;20680;-70
2022/11/29 00:20:31;;;;;;;4.75;4.35;;;17.90;50.70;;;;;;4977672;28;20260;-70
2022/11/29 00:22:58;;;;;;;4.90;4.43;;;17.90;50.80;;;;;;5010451;28;20193;-70
2022/11/29 00:25:25;;;;;;;4.35;3.95;;;17.90;50.80;;;;;;4994037;28;20209;-70
2022/11/29 00:27:53;;;;;;;4.47;4.07;;;17.80;50.70;;;;;;4995195;28;20225;-70
2022/11/29 00:30:20;;;;;;;4.80;4.40;;;17.80;50.70;;;;;;5010474;28;20225;-70
2022/11/29 00:32:48;;;;;;;5.10;4.70;;;17.80;50.80;;;;;;4993532;28;20213;-70
2022/11/29 00:35:15;;;;;;;5.15;4.75;;;17.80;50.80;;;;;;4994852;28;20193;-70
2022/11/29 00:37:44;;;;;;;5.07;4.68;;;17.80;50.80;;;;;;4993407;28;20201;-70
2022/11/29 00:40:12;;;;;;;4.97;4.53;;;17.80;50.80;;;;;;4993609;28;20263;-70
2022/11/29 00:42:39;;;;;;;4.80;4.35;;;17.80;50.90;;;;;;4993786;28;20228;-70
2022/11/29 00:45:08;;;;;;;4.50;4.10;;;17.80;50.80;;;;;;4993870;28;20201;-70
2022/11/29 00:47:35;;;;;;;4.80;4.40;;;17.80;50.90;;;;;;4993376;28;20225;-70
2022/11/29 00:50:03;;;;;;;5.03;4.32;;;17.80;50.90;;;;;;4993285;28;20222;-70
2022/11/29 00:52:30;;;;;;;4.82;4.43;;;17.80;50.90;;;;;;4994022;28;20193;-70
2022/11/29 00:54:59;;;;;;;4.35;4.05;;;17.80;51.00;;;;;;4994628;28;20189;-70
2022/11/29 00:57:26;;;;;;;5.63;4.53;;;17.70;50.90;;;;;;4993714;28;20201;-69
2022/11/29 00:59:52;;;;;;;4.82;4.43;;;17.70;51.00;;;;;;4993637;28;20230;-70
2022/11/29 01:02:19;;;;;;;4.82;4.43;;;17.70;51.00;;;;;;4994340;28;20711;-70
2022/11/29 01:04:46;;;;;;;4.65;4.25;;;17.70;51.00;;;;;;4993061;28;20653;-69
2022/11/29 01:07:14;;;;;;;5.60;4.72;;;17.70;51.00;;;;;;4993170;28;20280;-70
2022/11/29 01:09:41;;;;;;;4.82;4.43;;;17.70;51.10;;;;;;4992965;28;20229;-70
2022/11/29 01:12:10;;;;;;;5.13;4.63;;;17.70;51.10;;;;;;4993055;28;20197;-70
2022/11/29 01:14:37;;;;;;;4.47;4.07;;;17.60;51.00;;;;;;4993131;28;20292;-69
2022/11/29 01:17:04;;;;;;;4.75;4.30;;;17.60;51.10;;;;;;4993133;28;20189;-69
2022/11/29 01:19:31;;;;;;;4.75;4.32;;;17.60;51.10;;;;;;4994358;28;20217;-70
2022/11/29 01:21:58;;;;;;;4.50;4.10;;;17.60;51.10;;;;;;4994075;28;20221;-70
2022/11/29 01:24:25;;;;;;;4.85;4.45;;;17.60;51.00;;;;;;4993038;28;20197;-70
2022/11/29 01:26:52;;;;;;;4.47;4.07;;;17.60;51.10;;;;;;5009839;28;20196;-69
2022/11/29 01:29:21;;;;;;;4.60;4.20;;;17.60;51.20;;;;;;4993282;28;20227;-69
2022/11/29 01:31:47;;;;;;;4.85;4.45;;;17.60;51.20;;;;;;4993128;28;20205;-69
2022/11/29 01:34:15;;;;;;;4.57;4.18;;;17.50;51.20;;;;;;4993361;28;20225;-69
2022/11/29 01:36:42;;;;;;;4.43;4.10;;;17.50;51.20;;;;;;4992834;28;20194;-69
2022/11/29 01:39:10;;;;;;;4.55;4.15;;;17.50;51.20;;;;;;4992932;28;20320;-70
2022/11/29 01:41:37;;;;;;;4.72;4.32;;;17.50;51.20;;;;;;4994316;28;20212;-69
2022/11/29 01:44:05;;;;;;;4.60;4.15;;;17.50;51.30;;;;;;5009258;28;20225;-69
2022/11/29 01:46:34;;;;;;;4.88;4.25;;;17.50;51.30;;;;;;4992871;28;20193;-69
2022/11/29 01:49:03;;;;;;;4.80;4.40;;;17.50;51.40;;;;;;4992755;28;20689;-70
2022/11/29 01:51:31;;;;;;;4.50;4.10;;;17.50;51.40;;;;;;4992793;28;20200;-70
2022/11/29 01:53:58;;;;;;;4.13;3.80;;;17.50;51.50;;;;;;4994217;28;20268;-69
2022/11/29 01:56:25;;;;;;;4.50;4.10;;;17.50;51.40;;;;;;4992896;28;20209;-70
2022/11/29 01:58:52;;;;;;;4.70;4.30;;;17.40;51.40;;;;;;4993125;28;20210;-70
2022/11/29 02:01:20;;;;;;;4.47;4.10;;;17.40;51.50;;;;;;4992834;28;20225;-70
2022/11/29 02:03:48;;;;;;;4.50;4.10;;;17.40;51.50;;;;;;4995600;28;20177;-70
2022/11/29 02:06:15;;;;;;;4.47;3.97;;;17.40;51.50;;;;;;4996725;28;20221;-70
2022/11/29 02:08:43;;;;;;;4.50;4.10;;;17.40;51.50;;;;;;4997775;28;20209;-70
2022/11/29 02:11:35;;;;;;;4.22;3.92;;;17.40;51.50;;;;;;4996387;28;20220;-70
2022/11/29 02:14:10;;;;;;;4.43;3.88;;;17.30;51.60;;;;;;4997233;28;20194;-70
2022/11/29 02:16:40;;;;;;;4.40;4.00;;;17.30;51.60;;;;;;4996604;28;20205;-70
2022/11/29 02:19:15;;;;;;;4.57;3.85;;;17.40;51.70;;;;;;4996333;28;20232;-70
2022/11/29 02:21:43;;;;;;;4.20;3.78;;;17.30;51.70;;;;;;4996931;28;20216;-70
2022/11/29 02:24:41;;;;;;;3.95;3.53;;;17.30;51.70;;;;;;4997200;28;20200;-70
2022/11/29 02:27:44;;;;;;;4.55;4.15;;;17.30;51.70;;;;;;4995781;28;20185;-70
2022/11/29 02:30:21;;;;;;;4.22;3.90;;;17.30;51.70;;;;;;4996063;28;20228;-70
2022/11/29 02:33:24;;;;;;;4.53;3.90;;;17.30;51.80;;;;;;4995853;28;20220;-70
2022/11/29 02:36:10;;;;;;;4.20;3.83;;;17.30;51.80;;;;;;4964959;28;20215;-70
2022/11/29 02:39:07;;;;;;;4.20;3.90;;;17.30;51.80;;;;;;4995722;28;20229;-70
2022/11/29 02:41:43;;;;;;;5.35;4.20;;;17.30;51.80;;;;;;4989847;28;20582;-70
2022/11/29 02:44:23;;;;;;;3.80;3.50;;;17.30;51.90;;;;;;4995513;28;20205;-70
2022/11/29 02:46:55;;;;;;;4.00;3.70;;;17.30;51.90;;;;;;4995496;28;20653;-70
2022/11/29 02:49:28;;;;;;;4.32;3.80;;;17.30;51.90;;;;;;4995700;28;20222;-70
2022/11/29 02:51:59;;;;;;;4.40;4.00;;;17.30;51.90;;;;;;4996171;28;20202;-70
2022/11/29 02:54:27;;;;;;;3.88;3.58;;;17.30;51.90;;;;;;4995888;28;20551;-70
2022/11/29 02:56:56;;;;;;;3.90;3.60;;;17.20;51.90;;;;;;4995333;28;20197;-70
2022/11/29 02:59:42;;;;;;;4.15;3.80;;;17.20;51.90;;;;;;4995879;28;20251;-70
2022/11/29 03:02:20;;;;;;;4.40;3.95;;;17.20;52.00;;;;;;4996400;28;20220;-70
2022/11/29 03:04:49;;;;;;;4.32;3.92;;;17.20;52.00;;;;;;4996415;28;20208;-70
2022/11/29 03:07:25;;;;;;;4.05;3.72;;;17.20;52.00;;;;;;4995216;28;20236;-70
2022/11/29 03:09:56;;;;;;;4.22;3.90;;;17.20;51.90;;;;;;4995356;28;20248;-70
2022/11/29 03:12:26;;;;;;;4.30;3.90;;;17.20;52.00;;;;;;4997019;28;20192;-70
2022/11/29 03:14:57;;;;;;;4.25;3.85;;;17.20;52.10;;;;;;4996169;28;20189;-69
2022/11/29 03:17:32;;;;;;;4.20;3.90;;;17.20;52.00;;;;;;4994964;28;20201;-69
2022/11/29 03:20:07;;;;;;;4.45;4.05;;;17.20;52.00;;;;;;4995470;28;20276;-70
2022/11/29 03:22:41;;;;;;;4.00;3.70;;;17.20;52.10;;;;;;4995088;28;20219;-69
2022/11/29 03:25:12;;;;;;;4.18;3.78;;;17.20;52.10;;;;;;4995975;28;20188;-70
2022/11/29 03:27:41;;;;;;;4.18;3.80;;;17.20;52.10;;;;;;4995699;28;20229;-70
2022/11/29 03:30:09;;;;;;;4.35;3.95;;;17.20;52.00;;;;;;4994903;28;20222;-70
2022/11/29 03:32:40;;;;;;;3.92;3.50;;;17.20;52.10;;;;;;4995056;28;20675;-70
2022/11/29 03:35:10;;;;;;;4.20;3.80;;;17.20;52.10;;;;;;5011232;28;20202;-70
2022/11/29 03:37:43;;;;;;;3.97;3.67;;;17.20;52.10;;;;;;4995850;28;20276;-70
2022/11/29 03:40:13;;;;;;;3.72;3.42;;;17.20;52.10;;;;;;4994479;28;20263;-70
2022/11/29 03:42:43;;;;;;;3.88;3.58;;;17.20;52.10;;;;;;4994411;28;20210;-70
2022/11/29 03:45:14;;;;;;;4.47;4.00;;;17.10;52.10;;;;;;4994458;28;20196;-70
2022/11/29 03:47:44;;;;;;;4.00;3.65;;;17.20;52.20;;;;;;4994406;28;20197;-70
2022/11/29 03:50:14;;;;;;;4.03;3.72;;;17.10;52.20;;;;;;4995798;28;20221;-70
2022/11/29 03:52:47;;;;;;;4.10;3.80;;;17.20;52.20;;;;;;4995445;28;20272;-70
2022/11/29 03:55:24;;;;;;;4.32;3.92;;;17.10;52.30;;;;;;4994592;28;20293;-70
2022/11/29 03:57:58;;;;;;;3.75;3.45;;;17.10;52.20;;;;;;4994227;28;20197;-70
2022/11/29 04:00:25;;;;;;;4.20;3.80;;;17.10;52.20;;;;;;4994057;28;20279;-70
2022/11/29 04:03:15;;;;;;;4.03;3.72;;;17.10;52.20;;;;;;4994326;28;20233;-71
2022/11/29 04:05:54;;;;;;;3.70;3.40;;;17.10;52.30;;;;;;4994218;28;20202;-70
2022/11/29 04:08:53;;;;;;;3.92;3.45;;;17.10;52.20;;;;;;4995471;28;20235;-70
2022/11/29 04:11:58;;;;;;;3.90;3.60;;;17.10;52.20;;;;;;4994446;28;20696;-70
2022/11/29 04:14:33;;;;;;;3.50;3.20;;;17.10;52.20;;;;;;5010301;28;20204;-70
2022/11/29 04:17:45;;;;;;;3.90;3.47;;;17.10;52.30;;;;;;4993866;28;20190;-70
2022/11/29 04:20:35;;;;;;;3.65;3.35;;;17.10;52.30;;;;;;4994095;28;20225;-70
2022/11/29 04:23:20;;;;;;;3.83;3.47;;;17.10;52.30;;;;;;4993689;28;20232;-70
2022/11/29 04:26:24;;;;;;;3.88;3.58;;;17.20;52.40;;;;;;4994258;28;20284;-70
2022/11/29 04:29:10;;;;;;;3.88;3.58;;;17.20;52.30;;;;;;4980975;28;20221;-70
2022/11/29 04:31:40;;;;;;;3.90;3.50;;;17.20;52.20;;;;;;4990096;28;20295;-70
2022/11/29 04:34:32;;;;;;;3.80;3.50;;;17.30;52.10;;;;;;4994537;28;20198;-70
2022/11/29 04:37:35;;;;;;;3.72;3.42;;;17.30;52.10;;;;;;4993883;28;20233;-70
2022/11/29 04:40:10;;;;;;;3.75;3.45;;;17.30;51.80;;;;;;4962150;28;20228;-70
2022/11/29 04:43:03;;;;;;;3.95;3.60;;;17.30;51.70;;;;;;4993348;28;20217;-70
2022/11/29 04:45:44;;;;;;;3.70;3.40;;;17.40;51.80;;;;;;4993485;28;20186;-70
2022/11/29 04:48:20;;;;;;;3.50;3.20;;;17.40;51.80;;;;;;4994825;28;20174;-70
2022/11/29 04:50:51;;;;;;;3.92;3.53;;;17.40;51.70;;;;;;4993510;28;20200;-70
2022/11/29 04:53:30;;;;;;;3.70;3.40;;;17.50;51.70;;;;;;4994430;28;20553;-70
2022/11/29 04:56:05;;;;;;;3.70;3.40;;;17.50;51.60;;;;;;4993633;28;20197;-70
2022/11/29 04:58:36;;;;;;;3.58;3.28;;;17.50;51.60;;;;;;4993492;28;20220;-70
2022/11/29 05:01:09;;;;;;;4.00;3.60;;;17.50;51.60;;;;;;4995474;28;20196;-70
2022/11/29 05:03:40;;;;;;;3.40;3.10;;;17.50;51.60;;;;;;4993452;28;20284;-70
2022/11/29 05:06:15;;;;;;;3.20;3.00;;;17.50;51.60;;;;;;4993238;28;20198;-70
2022/11/29 05:08:47;;;;;;;3.38;3.15;;;17.50;51.60;;;;;;4994786;28;20271;-71
2022/11/29 05:11:18;;;;;;;3.33;3.03;;;17.50;51.60;;;;;;4993240;28;20201;-71
2022/11/29 05:13:50;;;;;;;3.50;3.20;;;17.50;51.70;;;;;;4994433;28;20212;-72
2022/11/29 05:16:32;;;;;;;3.83;3.53;;;17.50;51.50;;;;;;4993308;28;20197;-71
2022/11/29 05:19:28;;;;;;;3.22;3.03;;;17.50;51.50;;;;;;4993142;28;20288;-71
2022/11/29 05:22:00;;;;;;;3.60;3.30;;;17.50;51.50;;;;;;4993356;28;20205;-71
2022/11/29 05:24:35;;;;;;;3.42;3.22;;;17.50;51.30;;;;;;4993029;28;20194;-71
2022/11/29 05:27:08;;;;;;;3.60;3.30;;;17.60;51.30;;;;;;4993430;28;20271;-71
2022/11/29 05:29:40;;;;;;;3.38;3.15;;;17.60;51.30;;;;;;4994233;28;20229;-71
2022/11/29 05:32:20;;;;;;;3.30;3.00;;;17.60;51.30;;;;;;4993239;28;20680;-70
2022/11/29 05:34:55;;;;;;;3.58;3.28;;;17.70;51.20;;;;;;4994740;28;20185;-71
2022/11/29 05:37:27;;;;;;;3.95;3.65;;;17.70;51.30;;;;;;4993801;28;20626;-70
2022/11/29 05:40:04;;;;;;;5.53;3.35;;;17.70;51.50;;;;;;4998752;28;20295;-70
2022/11/29 05:42:38;;;;;;;3.13;2.92;;;17.70;52.50;;;;;;4998031;28;20212;-71
2022/11/29 05:45:09;;;;;;;3.45;3.15;;;17.70;52.10;;;;;;4997537;28;20189;-71
2022/11/29 05:47:41;;;;;;;3.22;2.85;;;17.70;51.50;;;;;;4996839;28;20623;-71
2022/11/29 05:50:10;;;;;;;3.40;3.10;;;17.70;51.70;;;;;;4996534;28;20308;-71
2022/11/29 05:52:43;;;;;;;5.63;3.30;;;17.80;52.10;;;;;;4996500;28;20198;-70
2022/11/29 05:55:19;;;;;;;3.28;3.08;;;17.80;52.00;;;;;;4996633;28;20213;-71
2022/11/29 05:57:49;;;;;;;4.05;2.97;;;17.80;51.90;;;;;;4996848;28;20197;-71
2022/11/29 06:00:16;;;;;;;3.10;2.90;;;17.80;51.50;;;;;;4996939;28;20316;-71
2022/11/29 06:02:51;;;;;;;3.28;2.85;;;17.80;51.30;;;;;;4996677;28;20221;-71
2022/11/29 06:05:22;;;;;;;3.40;3.10;;;17.90;51.50;;;;;;4996424;28;20189;-71
2022/11/29 06:07:52;;;;;;;3.55;3.25;;;17.90;51.50;;;;;;4996311;28;20325;-71
2022/11/29 06:10:21;;;;;;;3.08;2.88;;;17.90;51.30;;;;;;4996347;28;20228;-72
2022/11/29 06:12:51;;;;;;;3.85;2.80;;;17.90;51.40;;;;;;4997157;28;20676;-71
2022/11/29 06:15:33;;;;;;;3.17;2.88;;;17.90;51.40;;;;;;4995981;28;20194;-71
2022/11/29 06:18:28;;;;;;;3.47;3.08;;;18.00;51.30;;;;;;4995932;28;20193;-71
2022/11/29 06:21:01;;;;;;;2.90;2.70;;;18.00;51.20;;;;;;5009820;28;20211;-71
2022/11/29 06:23:41;;;;;;;4.57;3.03;;;18.00;51.30;;;;;;4996043;28;20217;-71
2022/11/29 06:26:15;;;;;;;2.95;2.75;;;18.00;51.30;;;;;;5012216;28;20204;-71
2022/11/29 06:28:48;;;;;;;3.00;2.80;;;18.00;51.20;;;;;;4997260;28;20244;-71
2022/11/29 06:31:17;;;;;;;3.03;2.83;;;18.00;51.10;;;;;;4997047;28;20177;-71
2022/11/29 06:33:51;;;;;;;3.58;2.80;;;18.10;51.10;;;;;;4995666;28;20197;-71
2022/11/29 06:36:21;;;;;;;3.65;2.78;;;18.10;51.10;;;;;;4996173;28;20197;-71
2022/11/29 06:38:48;;;;;;;2.88;2.67;;;18.10;50.90;;;;;;4995643;28;20209;-71
2022/11/29 06:41:18;;;;;;;3.90;2.58;;;18.10;50.90;;;;;;4995858;28;20208;-71
2022/11/29 06:43:46;;;;;;;2.83;2.63;;;18.10;50.70;;;;;;4995493;28;20676;-71
2022/11/29 06:46:16;;;;;;;2.70;2.50;;;18.20;50.70;;;;;;4995586;28;20209;-71
2022/11/29 06:48:48;;;;;;;2.95;2.75;;;18.20;50.70;;;;;;4995682;28;20221;-71
2022/11/29 06:51:18;;;;;;;2.75;2.55;;;18.20;50.50;;;;;;4997012;28;20174;-70
2022/11/29 06:53:48;;;;;;;3.05;2.85;;;18.20;50.50;;;;;;5011710;28;20193;-70
2022/11/29 06:56:19;;;;;;;2.60;2.40;;;18.20;50.50;;;;;;4996563;28;20201;-70
2022/11/29 06:58:50;;;;;;;2.60;2.40;;;18.20;50.50;;;;;;4995550;28;20222;-70
2022/11/29 07:01:23;;;;;;;3.15;2.90;;;18.30;50.40;;;;;;4995251;28;20209;-70
2022/11/29 07:04:02;;;;;;;3.33;2.70;;;18.20;50.20;;;;;;4995220;28;20217;-71
2022/11/29 07:06:29;;;;;;;3.17;2.83;;;18.30;50.90;;;;;;5011616;28;20553;-71
2022/11/29 07:08:59;;;;;;;2.60;2.40;;;18.30;50.30;;;;;;4995082;28;20225;-71
2022/11/29 07:11:26;;;;;;;2.63;2.42;;;18.30;50.20;;;;;;4995200;28;20298;-71
2022/11/29 07:13:54;;;;;;;3.00;2.70;;;18.30;50.10;;;;;;4995230;28;20621;-71
2022/11/29 07:16:24;;;;;;;2.80;2.60;;;18.30;50.10;;;;;;4995385;28;20204;-71
2022/11/29 07:18:57;;;;;;;3.58;2.65;;;18.40;50.10;;;;;;4995184;28;20287;-71
2022/11/29 07:21:28;;;;;;;4.55;2.67;;;18.40;50.10;;;;;;4995016;28;20204;-71
2022/11/29 07:23:59;;;;;;;2.90;2.50;;;18.40;50.10;;;;;;4994880;28;20226;-71
2022/11/29 07:26:29;;;;;;;2.50;2.30;;;18.40;50.10;;;;;;4995060;28;20204;-71
2022/11/29 07:29:06;;;;;;;2.88;2.60;;;18.40;50.00;;;;;;4995076;28;20582;-71
2022/11/29 07:31:38;;;;;;;2.55;2.35;;;18.40;50.00;;;;;;4994932;28;20193;-71
2022/11/29 07:34:10;;;;;;;2.70;2.50;;;18.50;50.00;;;;;;4995123;28;20204;-71
2022/11/29 07:36:40;;;;;;;2.90;2.70;;;18.50;50.00;;;;;;4994940;28;20204;-71
2022/11/29 07:39:18;;;;;;;2.67;2.47;;;18.40;49.90;;;;;;4995696;28;20654;-71
2022/11/29 07:41:48;;;;;;;2.70;2.50;;;18.50;50.00;;;;;;4995602;28;20185;-71
2022/11/29 07:44:21;;;;;;;3.00;2.70;;;18.40;49.80;;;;;;4994663;28;20304;-71
2022/11/29 07:46:48;;;;;;;2.35;2.15;;;18.50;49.90;;;;;;4994646;28;20292;-71
2022/11/29 07:49:16;;;;;;;2.50;2.30;;;18.50;50.00;;;;;;5011219;28;20217;-71
2022/11/29 07:51:44;;;;;;;2.40;2.25;;;18.50;49.90;;;;;;4994488;28;20197;-71
2022/11/29 07:54:10;;;;;;;2.65;2.40;;;18.50;49.80;;;;;;4994784;28;20193;-71
2022/11/29 07:56:39;;;;;;;2.90;2.60;;;18.50;49.90;;;;;;4994177;28;20209;-71
2022/11/29 07:59:10;;;;;;;3.17;2.53;;;18.50;49.90;;;;;;4995532;28;20213;-71
2022/11/29 08:01:37;;;;;;;2.40;2.20;;;18.50;49.80;;;;;;4994477;28;20220;-71
2022/11/29 08:04:04;;;;;;;2.70;2.42;;;18.50;49.80;;;;;;5010399;28;20232;-71
2022/11/29 08:06:33;;;;;;;2.40;2.20;;;18.50;49.90;;;;;;4994399;28;20572;-71
2022/11/29 08:09:00;;;;;;;3.15;2.38;;;18.50;49.90;;;;;;4995123;28;20553;-71
2022/11/29 08:11:27;;;;;;;2.58;2.38;;;18.50;49.80;;;;;;4994070;28;20277;-71
2022/11/29 08:13:56;;;;;;;2.75;2.47;;;18.50;49.80;;;;;;4994135;28;20220;-71
2022/11/29 08:16:23;;;;;;;2.33;2.13;;;18.50;49.80;;;;;;4993904;28;20197;-71
2022/11/29 08:18:52;;;;;;;2.50;2.30;;;18.50;49.90;;;;;;4993907;28;20320;-71
2022/11/29 08:21:19;;;;;;;2.53;2.33;;;18.50;49.80;;;;;;4993988;28;20225;-71
2022/11/29 08:23:49;;;;;;;2.75;2.20;;;18.50;49.80;;;;;;4993975;28;20217;-71
2022/11/29 08:26:17;;;;;;;2.50;2.30;;;18.50;49.80;;;;;;4995957;28;20214;-71
2022/11/29 08:28:44;;;;;;;2.55;2.20;;;18.50;49.70;;;;;;4994892;28;20221;-71
2022/11/29 08:31:12;;;;;;;2.67;2.47;;;18.50;49.80;;;;;;4993867;28;20202;-71
2022/11/29 08:33:41;;;;;;;2.50;2.30;;;18.50;49.80;;;;;;4993778;28;20672;-70
2022/11/29 08:36:09;;;;;;;2.67;2.42;;;18.50;49.80;;;;;;4993643;28;20201;-71
2022/11/29 08:38:36;;;;;;;2.40;2.20;;;18.50;49.80;;;;;;4993725;28;20271;-71
2022/11/29 08:41:06;;;;;;;2.35;2.03;;;18.50;49.80;;;;;;4995219;28;20225;-71
2022/11/29 08:43:34;;;;;;;2.55;2.30;;;18.50;49.70;;;;;;4995483;28;20209;-71
2022/11/29 08:46:01;;;;;;;2.20;2.10;;;18.50;49.70;;;;;;4993612;28;20197;-71
2022/11/29 08:48:28;;;;;;;2.33;2.13;;;18.50;49.80;;;;;;4994571;28;20221;-71
2022/11/29 08:50:56;;;;;;;2.30;2.10;;;18.50;49.80;;;;;;4993513;28;20201;-71
2022/11/29 08:53:40;;;;;;;1.83;1.73;;;18.50;49.80;;;;;;4993393;28;20644;-71
2022/11/29 08:56:09;;;;;;;2.35;2.15;;;18.60;49.80;;;;;;4993220;28;20185;-71
2022/11/29 08:58:36;;;;;;;2.30;2.10;;;18.60;49.80;;;;;;4993170;28;20224;-71
2022/11/29 09:01:03;;;;;;;2.40;2.20;;;18.60;49.80;;;;;;4993453;28;20291;-71
2022/11/29 09:06:16;;;;;;;2.90;2.22;;;18.60;49.70;;;;;;4993212;28;20707;-71
2022/11/29 09:08:43;;;;;;;2.78;2.20;;;18.60;49.80;;;;;;4993160;28;20227;-71
2022/11/29 09:11:13;;;;;;;2.30;2.10;;;18.60;49.80;;;;;;4993053;28;20579;-71
2022/11/29 09:13:40;;;;;;;2.00;1.90;;;18.60;49.80;;;;;;4992743;28;20197;-71
2022/11/29 09:16:08;;;;;;;2.17;2.00;;;18.60;49.80;;;;;;4994202;28;20193;-71
2022/11/29 09:18:35;;;;;;;2.05;1.92;;;18.60;49.80;;;;;;5009313;28;20239;-71
2022/11/29 09:21:04;;;;;;;1.92;1.75;;;18.60;49.70;;;;;;4993695;28;20252;-71
2022/11/29 09:23:31;;;;;;;2.05;1.95;;;18.60;49.80;;;;;;5009315;28;20221;-71
2022/11/29 09:25:59;;;;;;;1.90;1.80;;;18.70;49.80;;;;;;4992960;28;20209;-71
2022/11/29 09:28:27;;;;;;;2.00;1.90;;;18.60;49.70;;;;;;4994805;28;20205;-71
2022/11/29 09:30:54;;;;;;;1.90;1.80;;;18.70;49.70;;;;;;4993264;28;20197;-71
2022/11/29 09:33:21;;;;;;;1.85;1.75;;;18.70;49.60;;;;;;4993314;28;20193;-71
2022/11/29 09:35:48;;;;;;;2.20;2.00;;;18.70;49.60;;;;;;4994384;28;20190;-71
2022/11/29 09:38:15;;;;;;;1.83;1.73;;;18.70;49.60;;;;;;4992903;28;20653;-71
2022/11/29 09:40:46;;;;;;;2.08;1.98;;;18.70;49.60;;;;;;4992960;28;20205;-70
2022/11/29 09:43:17;;;;;;;2.20;2.00;;;18.70;49.60;;;;;;4994180;28;20283;-71
2022/11/29 09:45:46;;;;;;;2.05;1.90;;;18.70;49.60;;;;;;4993051;28;20190;-71
2022/11/29 09:48:37;;;;;;;1.80;1.70;;;18.70;49.50;;;;;;4992865;28;20202;-71
2022/11/29 09:51:11;;;;;;;2.10;1.95;;;18.70;49.60;;;;;;4994777;28;20646;-71
2022/11/29 09:53:46;;;;;;;1.90;1.80;;;18.70;49.60;;;;;;4994415;28;20181;-71
2022/11/29 09:56:18;;;;;;;2.03;1.83;;;18.70;49.60;;;;;;4993249;28;20652;-71
2022/11/29 09:58:48;;;;;;;1.95;1.80;;;18.70;49.60;;;;;;4994446;28;20221;-71
2022/11/29 10:01:20;;;;;;;2.13;2.00;;;18.70;49.50;;;;;;4995724;28;20210;-71
2022/11/29 10:03:50;;;;;;;2.00;1.90;;;18.80;49.60;;;;;;4994974;28;20209;-71
2022/11/29 10:06:21;;;;;;;2.65;2.45;;;18.80;49.60;;;;;;4995473;28;20251;-71
2022/11/29 10:08:49;;;;;;;2.10;2.00;;;18.70;49.50;;;;;;4993484;28;20218;-71
2022/11/29 10:11:19;;;;;;;2.30;2.10;;;18.80;49.60;;;;;;4994781;28;20196;-71
2022/11/29 10:13:48;;;;;;;2.00;1.90;;;18.80;49.60;;;;;;4993137;28;20201;-71
2022/11/29 10:16:19;;;;;;;2.15;2.05;;;18.80;49.60;;;;;;4977544;28;20201;-71
2022/11/29 10:18:48;;;;;;;2.60;2.40;;;18.80;49.60;;;;;;5004459;28;20221;-71
2022/11/29 10:21:18;;;;;;;2.30;2.10;;;18.70;49.50;;;;;;5018162;28;20185;-71
2022/11/29 10:23:47;;;;;;;3.00;2.60;;;18.80;49.60;;;;;;5017816;28;20214;-71
2022/11/29 10:26:14;;;;;;;2.28;2.08;;;18.80;49.60;;;;;;5005567;28;20625;-71
2022/11/29 10:28:43;;;;;;;2.58;2.38;;;18.70;49.40;;;;;;4997858;28;20696;-71
2022/11/29 10:31:16;;;;;;;2.50;2.30;;;18.70;49.50;;;;;;4996254;28;20205;-71
2022/11/29 10:33:45;;;;;;;2.67;2.33;;;18.70;49.50;;;;;;4996075;28;20206;-71
2022/11/29 10:36:16;;;;;;;2.50;2.30;;;18.80;49.60;;;;;;4996110;28;20227;-71
2022/11/29 10:38:43;;;;;;;2.70;2.50;;;18.70;49.50;;;;;;4996179;28;20597;-71
2022/11/29 10:41:13;;;;;;;2.67;2.30;;;18.80;49.60;;;;;;4996370;28;20205;-71
2022/11/29 10:43:41;;;;;;;2.80;2.60;;;18.80;49.50;;;;;;4997644;28;20285;-71
2022/11/29 10:46:11;;;;;;;2.95;2.75;;;18.80;49.50;;;;;;4996453;28;20256;-71
2022/11/29 10:48:38;;;;;;;2.67;2.47;;;18.80;49.40;;;;;;4995879;28;20217;-71
2022/11/29 10:51:12;;;;;;;2.90;2.70;;;18.80;49.40;;;;;;4997084;28;20197;-71
2022/11/29 10:53:39;;;;;;;2.83;2.63;;;18.80;49.50;;;;;;4997072;28;20201;-71
2022/11/29 10:56:08;;;;;;;3.03;2.72;;;18.80;49.50;;;;;;4997188;28;20192;-71
2022/11/29 10:58:36;;;;;;;2.38;2.17;;;18.80;49.50;;;;;;4995936;28;20225;-71
2022/11/29 11:01:05;;;;;;;2.60;2.40;;;18.80;49.60;;;;;;4999249;28;20220;-71
2022/11/29 11:03:35;;;;;;;2.70;2.50;;;18.80;49.50;;;;;;4996815;28;20610;-71
2022/11/29 11:06:09;;;;;;;2.50;2.30;;;18.80;49.50;;;;;;4996605;28;20194;-71
2022/11/29 11:08:36;;;;;;;2.83;2.53;;;18.80;49.50;;;;;;4996598;28;20209;-71
2022/11/29 11:11:04;;;;;;;2.78;2.40;;;18.80;49.50;;;;;;4995389;28;20255;-70
2022/11/29 11:13:32;;;;;;;2.25;2.05;;;18.80;49.50;;;;;;4995505;28;20205;-70
2022/11/29 11:16:06;;;;;;;2.38;2.17;;;18.80;49.40;;;;;;4995056;28;20197;-70
2022/11/29 11:18:33;;;;;;;2.50;2.30;;;18.80;49.40;;;;;;4980227;28;20217;-70
2022/11/29 11:21:01;;;;;;;2.47;2.28;;;18.80;49.40;;;;;;4996600;28;20197;-70
2022/11/29 11:23:31;;;;;;;2.45;2.25;;;18.80;49.40;;;;;;4996176;28;20288;-70
2022/11/29 11:26:00;;;;;;;2.60;2.40;;;18.80;49.30;;;;;;4996111;28;20255;-70
2022/11/29 11:28:28;;;;;;;2.30;2.10;;;18.80;49.30;;;;;;4996288;28;20716;-70
2022/11/29 11:30:57;;;;;;;2.83;2.63;;;18.80;49.40;;;;;;4994733;28;20268;-70
2022/11/29 11:33:25;;;;;;;2.60;2.40;;;18.80;49.30;;;;;;5010988;28;20574;-70
2022/11/29 11:36:03;;;;;;;2.67;2.47;;;18.80;49.30;;;;;;4995115;28;20208;-70
2022/11/29 11:38:31;;;;;;;2.33;2.13;;;18.80;49.30;;;;;;5011274;28;20224;-70
2022/11/29 11:41:04;;;;;;;2.17;2.05;;;18.80;49.90;;;;;;4995900;28;20201;-71
2022/11/29 11:43:31;;;;;;;2.22;2.10;;;18.80;49.50;;;;;;4994637;28;20205;-71
2022/11/29 11:45:58;;;;;;;2.10;2.00;;;18.70;49.50;;;;;;4994416;28;20237;-71
2022/11/29 11:48:25;;;;;;;2.47;2.28;;;18.70;49.60;;;;;;4995258;28;20267;-71
2022/11/29 11:50:53;;;;;;;2.53;2.33;;;18.70;49.60;;;;;;4995652;28;20253;-70
2022/11/29 11:53:22;;;;;;;2.50;2.30;;;18.70;49.50;;;;;;4995884;28;20561;-70
2022/11/29 11:55:59;;;;;;;2.95;2.67;;;18.70;49.60;;;;;;4994241;28;20569;-70
2022/11/29 11:58:27;;;;;;;2.53;2.33;;;18.80;49.60;;;;;;4994232;28;20205;-71
2022/11/29 12:00:55;;;;;;;2.47;2.28;;;18.80;49.50;;;;;;4995485;28;20197;-70
2022/11/29 12:03:33;;;;;;;2.38;2.10;;;18.80;49.90;;;;;;4995345;28;20194;-70
2022/11/29 12:06:07;;;;;;;2.40;2.20;;;18.90;49.40;;;;;;4994541;28;20561;-70
2022/11/29 12:08:34;;;;;;;2.38;2.22;;;18.90;49.40;;;;;;4994865;28;20271;-70
2022/11/29 12:11:05;;;;;;;2.78;2.58;;;18.90;49.40;;;;;;4995342;28;20653;-70
2022/11/29 12:13:33;;;;;;;2.38;2.22;;;18.90;49.40;;;;;;4993730;28;20194;-70
2022/11/29 12:16:02;;;;;;;2.40;2.20;;;18.90;49.30;;;;;;4994034;28;20197;-70
2022/11/29 12:18:42;;;;;;;2.40;2.20;;;18.90;50.00;;;;;;5010426;28;20225;-70
2022/11/29 12:21:12;;;;;;;2.53;2.33;;;18.90;49.30;;;;;;4993746;28;20202;-70
2022/11/29 12:23:43;;;;;;;2.33;2.13;;;18.90;49.20;;;;;;4995490;28;20181;-70
2022/11/29 12:26:13;;;;;;;2.60;2.40;;;19.00;49.20;;;;;;5010455;28;20197;-71
2022/11/29 12:28:41;;;;;;;2.28;2.00;;;19.00;49.80;;;;;;4993883;28;20288;-70
2022/11/29 12:31:14;;;;;;;2.17;2.08;;;19.00;49.20;;;;;;5010044;28;20677;-71
2022/11/29 12:33:43;;;;;;;2.50;2.30;;;19.00;49.20;;;;;;4993903;28;20189;-71
2022/11/29 12:36:18;;;;;;;2.10;2.00;;;19.00;49.10;;;;;;4977775;28;20224;-71
2022/11/29 12:38:54;;;;;;;2.40;2.20;;;19.00;49.10;;;;;;4993601;28;20315;-71
2022/11/29 12:41:29;;;;;;;2.22;2.08;;;19.00;49.10;;;;;;4993823;28;20190;-69
2022/11/29 12:44:04;;;;;;;2.17;2.08;;;19.00;49.10;;;;;;4993367;28;20193;-69
2022/11/29 12:46:31;;;;;;;2.58;2.38;;;19.00;49.20;;;;;;4993502;28;20217;-69
2022/11/29 12:49:00;;;;;;;2.30;2.20;;;19.00;49.10;;;;;;4993371;28;20217;-68
2022/11/29 12:51:31;;;;;;;2.03;1.92;;;19.00;49.10;;;;;;4993425;28;20205;-68
2022/11/29 12:54:15;;;;;;;2.00;1.90;;;19.00;49.20;;;;;;4994659;28;20689;-68
2022/11/29 12:56:45;;;;;;;2.15;2.05;;;19.00;49.20;;;;;;4993283;28;20237;-68
2022/11/29 12:59:20;;;;;;;1.98;1.88;;;19.00;49.20;;;;;;4994346;28;20213;-68
2022/11/29 13:01:58;;;;;;;2.53;2.33;;;19.00;49.20;;;;;;4993705;28;20208;-68
2022/11/29 13:04:28;;;;;;;2.40;2.20;;;19.00;49.20;;;;;;5010758;28;20562;-68
2022/11/29 13:06:56;;;;;;;2.50;2.30;;;19.00;49.10;;;;;;4993268;28;20209;-68
2022/11/29 13:09:47;;;;;;;2.10;2.00;;;19.00;49.20;;;;;;4994675;28;20227;-68
2022/11/29 13:12:18;;;;;;;2.50;2.30;;;19.00;49.20;;;;;;4994046;28;20202;-68
2022/11/29 13:14:48;;;;;;;2.33;2.13;;;19.00;49.10;;;;;;4993423;28;20190;-68